sensor_id;sensor_type;location;lat;lon;timestamp;temperature;humidity
25983;DHT22;13773;48.868;10.730;2023-04-24T00:00:11;9.60;99.90
25983;DHT22;13773;48.868;10.730;2023-04-24T00:02:41;9.50;99.90
25983;DHT22;13773;48.868;10.730;2023-04-24T00:05:12;9.50;99.90
25983;DHT22;13773;48.868;10.730;2023-04-24T00:07:39;9.50;99.90
25983;DHT22;13773;48.868;10.730;2023-04-24T00:10:06;9.50;99.90
25983;DHT22;13773;48.868;10.730;2023-04-24T00:12:32;9.40;99.90
25983;DHT22;13773;48.868;10.730;2023-04-24T00:14:57;9.40;99.90
25983;DHT22;13773;48.868;10.730;2023-04-24T00:17:23;9.40;99.90
25983;DHT22;13773;48.868;10.730;2023-04-24T00:19:49;9.30;99.90
25983;DHT22;13773;48.868;10.730;2023-04-24T00:22:27;9.30;99.90
25983;DHT22;13773;48.868;10.730;2023-04-24T00:24:53;9.20;99.90
25983;DHT22;13773;48.868;10.730;2023-04-24T00:27:19;9.20;99.90
25983;DHT22;13773;48.868;10.730;2023-04-24T00:29:45;9.20;99.90
25983;DHT22;13773;48.868;10.730;2023-04-24T00:32:11;9.30;99.90
25983;DHT22;13773;48.868;10.730;2023-04-24T00:34:37;9.20;99.90
25983;DHT22;13773;48.868;10.730;2023-04-24T00:37:03;9.30;99.90
25983;DHT22;13773;48.868;10.730;2023-04-24T00:39:28;9.30;99.90
25983;DHT22;13773;48.868;10.730;2023-04-24T00:41:54;9.30;99.90
25983;DHT22;13773;48.868;10.730;2023-04-24T00:44:20;9.30;99.90
25983;DHT22;13773;48.868;10.730;2023-04-24T00:46:46;9.30;99.90
25983;DHT22;13773;48.868;10.730;2023-04-24T00:49:18;9.30;99.90
25983;DHT22;13773;48.868;10.730;2023-04-24T00:51:44;9.30;99.90
25983;DHT22;13773;48.868;10.730;2023-04-24T00:54:12;9.40;99.90
25983;DHT22;13773;48.868;10.730;2023-04-24T00:56:38;9.40;99.90
25983;DHT22;13773;48.868;10.730;2023-04-24T00:59:04;9.40;99.90
25983;DHT22;13773;48.868;10.730;2023-04-24T01:01:30;9.50;99.90
25983;DHT22;13773;48.868;10.730;2023-04-24T01:03:57;9.50;99.90
25983;DHT22;13773;48.868;10.730;2023-04-24T01:06:28;9.50;99.90
25983;DHT22;13773;48.868;10.730;2023-04-24T01:08:54;9.50;99.90
25983;DHT22;13773;48.868;10.730;2023-04-24T01:11:21;9.50;99.90
25983;DHT22;13773;48.868;10.730;2023-04-24T01:13:48;9.50;99.90
25983;DHT22;13773;48.868;10.730;2023-04-24T01:16:17;9.60;99.90
25983;DHT22;13773;48.868;10.730;2023-04-24T01:18:43;9.60;99.90
25983;DHT22;13773;48.868;10.730;2023-04-24T01:21:13;9.60;99.90
25983;DHT22;13773;48.868;10.730;2023-04-24T01:23:40;9.60;99.90
25983;DHT22;13773;48.868;10.730;2023-04-24T01:26:06;9.50;99.90
25983;DHT22;13773;48.868;10.730;2023-04-24T01:28:31;9.50;99.90
25983;DHT22;13773;48.868;10.730;2023-04-24T01:30:57;9.40;99.90
25983;DHT22;13773;48.868;10.730;2023-04-24T01:33:23;9.30;99.90
25983;DHT22;13773;48.868;10.730;2023-04-24T01:35:49;9.30;99.90
25983;DHT22;13773;48.868;10.730;2023-04-24T01:38:15;9.30;99.90
25983;DHT22;13773;48.868;10.730;2023-04-24T01:40:41;9.20;99.90
25983;DHT22;13773;48.868;10.730;2023-04-24T01:43:07;9.20;99.90
25983;DHT22;13773;48.868;10.730;2023-04-24T01:45:33;9.20;99.90
25983;DHT22;13773;48.868;10.730;2023-04-24T01:47:58;9.20;99.90
25983;DHT22;13773;48.868;10.730;2023-04-24T01:50:25;9.20;99.90
25983;DHT22;13773;48.868;10.730;2023-04-24T01:52:51;9.10;99.90
25983;DHT22;13773;48.868;10.730;2023-04-24T01:55:17;9.10;99.90
25983;DHT22;13773;48.868;10.730;2023-04-24T01:57:42;9.10;99.90
25983;DHT22;13773;48.868;10.730;2023-04-24T02:00:09;9.10;99.90
25983;DHT22;13773;48.868;10.730;2023-04-24T02:02:38;9.10;99.90
25983;DHT22;13773;48.868;10.730;2023-04-24T02:05:06;9.10;99.90
25983;DHT22;13773;48.868;10.730;2023-04-24T02:07:32;9.10;99.90
25983;DHT22;13773;48.868;10.730;2023-04-24T02:09:58;9.10;99.90
25983;DHT22;13773;48.868;10.730;2023-04-24T02:12:24;9.20;99.90
25983;DHT22;13773;48.868;10.730;2023-04-24T02:14:50;9.10;99.90
25983;DHT22;13773;48.868;10.730;2023-04-24T02:17:16;9.10;99.90
25983;DHT22;13773;48.868;10.730;2023-04-24T02:19:42;9.10;99.90
25983;DHT22;13773;48.868;10.730;2023-04-24T02:22:07;9.10;99.90
25983;DHT22;13773;48.868;10.730;2023-04-24T02:24:33;9.10;99.90
25983;DHT22;13773;48.868;10.730;2023-04-24T02:26:59;9.10;99.90
25983;DHT22;13773;48.868;10.730;2023-04-24T02:29:25;9.10;99.90
25983;DHT22;13773;48.868;10.730;2023-04-24T02:31:51;9.00;99.90
25983;DHT22;13773;48.868;10.730;2023-04-24T02:34:16;9.00;99.90
25983;DHT22;13773;48.868;10.730;2023-04-24T02:36:42;9.00;99.90
25983;DHT22;13773;48.868;10.730;2023-04-24T02:39:08;9.00;99.90
25983;DHT22;13773;48.868;10.730;2023-04-24T02:41:33;9.00;99.90
25983;DHT22;13773;48.868;10.730;2023-04-24T02:43:59;9.00;99.90
25983;DHT22;13773;48.868;10.730;2023-04-24T02:46:25;8.90;99.90
25983;DHT22;13773;48.868;10.730;2023-04-24T02:48:51;9.00;99.90
25983;DHT22;13773;48.868;10.730;2023-04-24T02:51:17;8.90;99.90
25983;DHT22;13773;48.868;10.730;2023-04-24T02:53:43;8.90;99.90
25983;DHT22;13773;48.868;10.730;2023-04-24T02:56:08;8.90;99.90
25983;DHT22;13773;48.868;10.730;2023-04-24T02:58:34;8.90;99.90
25983;DHT22;13773;48.868;10.730;2023-04-24T03:01:01;8.90;99.90
25983;DHT22;13773;48.868;10.730;2023-04-24T03:03:26;8.90;99.90
25983;DHT22;13773;48.868;10.730;2023-04-24T03:05:52;8.90;99.90
25983;DHT22;13773;48.868;10.730;2023-04-24T03:08:18;8.90;99.90
25983;DHT22;13773;48.868;10.730;2023-04-24T03:10:44;8.90;99.90
25983;DHT22;13773;48.868;10.730;2023-04-24T03:13:09;8.80;99.90
25983;DHT22;13773;48.868;10.730;2023-04-24T03:15:35;8.80;99.90
25983;DHT22;13773;48.868;10.730;2023-04-24T03:18:01;8.80;99.90
25983;DHT22;13773;48.868;10.730;2023-04-24T03:20:28;8.80;99.90
25983;DHT22;13773;48.868;10.730;2023-04-24T03:22:53;8.80;99.90
25983;DHT22;13773;48.868;10.730;2023-04-24T03:25:19;8.80;99.90
25983;DHT22;13773;48.868;10.730;2023-04-24T03:27:45;8.80;99.90
25983;DHT22;13773;48.868;10.730;2023-04-24T03:30:11;8.80;99.90
25983;DHT22;13773;48.868;10.730;2023-04-24T03:32:37;8.70;99.90
25983;DHT22;13773;48.868;10.730;2023-04-24T03:35:06;8.70;99.90
25983;DHT22;13773;48.868;10.730;2023-04-24T03:37:32;8.70;99.90
25983;DHT22;13773;48.868;10.730;2023-04-24T03:39:58;8.70;99.90
25983;DHT22;13773;48.868;10.730;2023-04-24T03:42:23;8.70;99.90
25983;DHT22;13773;48.868;10.730;2023-04-24T03:44:49;8.70;99.90
25983;DHT22;13773;48.868;10.730;2023-04-24T03:47:15;8.70;99.90
25983;DHT22;13773;48.868;10.730;2023-04-24T03:49:41;8.70;99.90
25983;DHT22;13773;48.868;10.730;2023-04-24T03:52:06;8.70;99.90
25983;DHT22;13773;48.868;10.730;2023-04-24T03:54:32;8.70;99.90
25983;DHT22;13773;48.868;10.730;2023-04-24T03:56:58;8.70;99.90
25983;DHT22;13773;48.868;10.730;2023-04-24T03:59:24;8.70;99.90
25983;DHT22;13773;48.868;10.730;2023-04-24T04:01:49;8.70;99.90
25983;DHT22;13773;48.868;10.730;2023-04-24T04:04:15;8.70;99.90
25983;DHT22;13773;48.868;10.730;2023-04-24T04:06:41;8.70;99.90
25983;DHT22;13773;48.868;10.730;2023-04-24T04:09:07;8.70;99.90
25983;DHT22;13773;48.868;10.730;2023-04-24T04:11:34;8.70;99.90
25983;DHT22;13773;48.868;10.730;2023-04-24T04:14:00;8.60;99.90
25983;DHT22;13773;48.868;10.730;2023-04-24T04:16:26;8.60;99.90
25983;DHT22;13773;48.868;10.730;2023-04-24T04:18:52;8.70;99.90
25983;DHT22;13773;48.868;10.730;2023-04-24T04:21:18;8.60;99.90
25983;DHT22;13773;48.868;10.730;2023-04-24T04:23:43;8.60;99.90
25983;DHT22;13773;48.868;10.730;2023-04-24T04:26:09;8.60;99.90
25983;DHT22;13773;48.868;10.730;2023-04-24T04:28:35;8.70;99.90
25983;DHT22;13773;48.868;10.730;2023-04-24T04:31:01;8.70;99.90
25983;DHT22;13773;48.868;10.730;2023-04-24T04:33:27;8.70;99.90
25983;DHT22;13773;48.868;10.730;2023-04-24T04:35:53;8.70;99.90
25983;DHT22;13773;48.868;10.730;2023-04-24T04:38:19;8.70;99.90
25983;DHT22;13773;48.868;10.730;2023-04-24T04:40:45;8.80;99.90
25983;DHT22;13773;48.868;10.730;2023-04-24T04:43:11;8.80;99.90
25983;DHT22;13773;48.868;10.730;2023-04-24T04:45:38;8.80;99.90
25983;DHT22;13773;48.868;10.730;2023-04-24T04:48:05;8.80;99.90
25983;DHT22;13773;48.868;10.730;2023-04-24T04:50:34;8.90;99.90
25983;DHT22;13773;48.868;10.730;2023-04-24T04:53:00;8.90;99.90
25983;DHT22;13773;48.868;10.730;2023-04-24T04:55:26;8.90;99.90
25983;DHT22;13773;48.868;10.730;2023-04-24T04:57:52;8.90;99.90
25983;DHT22;13773;48.868;10.730;2023-04-24T05:00:18;9.00;99.90
25983;DHT22;13773;48.868;10.730;2023-04-24T05:02:44;9.00;99.90
25983;DHT22;13773;48.868;10.730;2023-04-24T05:05:10;9.00;99.90
25983;DHT22;13773;48.868;10.730;2023-04-24T05:07:36;9.10;99.90
25983;DHT22;13773;48.868;10.730;2023-04-24T05:10:02;9.10;99.90
25983;DHT22;13773;48.868;10.730;2023-04-24T05:12:28;9.10;99.90
25983;DHT22;13773;48.868;10.730;2023-04-24T05:14:53;9.20;99.90
25983;DHT22;13773;48.868;10.730;2023-04-24T05:17:19;9.30;99.90
25983;DHT22;13773;48.868;10.730;2023-04-24T05:19:45;9.30;99.90
25983;DHT22;13773;48.868;10.730;2023-04-24T05:22:11;9.30;99.90
25983;DHT22;13773;48.868;10.730;2023-04-24T05:24:38;9.30;99.90
25983;DHT22;13773;48.868;10.730;2023-04-24T05:27:04;9.30;99.90
25983;DHT22;13773;48.868;10.730;2023-04-24T05:29:30;9.30;99.90
25983;DHT22;13773;48.868;10.730;2023-04-24T05:31:57;9.30;99.90
25983;DHT22;13773;48.868;10.730;2023-04-24T05:34:23;10.80;99.90
25983;DHT22;13773;48.868;10.730;2023-04-24T05:36:49;9.30;99.90
25983;DHT22;13773;48.868;10.730;2023-04-24T05:39:16;9.30;99.90
25983;DHT22;13773;48.868;10.730;2023-04-24T05:41:42;9.30;99.90
25983;DHT22;13773;48.868;10.730;2023-04-24T05:44:08;9.40;99.90
25983;DHT22;13773;48.868;10.730;2023-04-24T05:46:33;9.40;99.90
25983;DHT22;13773;48.868;10.730;2023-04-24T05:48:59;9.40;99.90
25983;DHT22;13773;48.868;10.730;2023-04-24T05:51:25;9.50;99.90
25983;DHT22;13773;48.868;10.730;2023-04-24T05:53:51;9.50;99.90
25983;DHT22;13773;48.868;10.730;2023-04-24T05:56:17;9.60;99.90
25983;DHT22;13773;48.868;10.730;2023-04-24T05:58:43;9.60;99.90
25983;DHT22;13773;48.868;10.730;2023-04-24T06:01:09;9.60;99.90
25983;DHT22;13773;48.868;10.730;2023-04-24T06:03:35;9.70;99.90
25983;DHT22;13773;48.868;10.730;2023-04-24T06:06:00;9.70;99.90
25983;DHT22;13773;48.868;10.730;2023-04-24T06:08:26;9.80;99.90
25983;DHT22;13773;48.868;10.730;2023-04-24T06:10:52;9.80;99.90
25983;DHT22;13773;48.868;10.730;2023-04-24T06:13:17;9.90;99.90
25983;DHT22;13773;48.868;10.730;2023-04-24T06:15:43;10.00;99.90
25983;DHT22;13773;48.868;10.730;2023-04-24T06:18:09;10.00;99.90
25983;DHT22;13773;48.868;10.730;2023-04-24T06:20:38;10.00;99.90
25983;DHT22;13773;48.868;10.730;2023-04-24T06:23:04;10.10;99.90
25983;DHT22;13773;48.868;10.730;2023-04-24T06:25:30;10.10;99.90
25983;DHT22;13773;48.868;10.730;2023-04-24T06:27:56;10.20;99.90
25983;DHT22;13773;48.868;10.730;2023-04-24T06:30:22;10.20;99.90
25983;DHT22;13773;48.868;10.730;2023-04-24T06:32:48;10.20;99.90
25983;DHT22;13773;48.868;10.730;2023-04-24T06:35:13;10.10;99.90
25983;DHT22;13773;48.868;10.730;2023-04-24T06:37:41;9.90;99.90
25983;DHT22;13773;48.868;10.730;2023-04-24T06:40:07;9.60;99.90
25983;DHT22;13773;48.868;10.730;2023-04-24T06:42:33;9.20;99.90
25983;DHT22;13773;48.868;10.730;2023-04-24T06:45:00;8.90;99.90
25983;DHT22;13773;48.868;10.730;2023-04-24T06:47:26;8.70;99.90
25983;DHT22;13773;48.868;10.730;2023-04-24T06:49:52;8.50;99.90
25983;DHT22;13773;48.868;10.730;2023-04-24T06:52:18;8.50;99.90
25983;DHT22;13773;48.868;10.730;2023-04-24T06:54:44;8.50;99.90
25983;DHT22;13773;48.868;10.730;2023-04-24T06:57:09;8.50;99.90
25983;DHT22;13773;48.868;10.730;2023-04-24T06:59:36;8.50;99.90
25983;DHT22;13773;48.868;10.730;2023-04-24T07:02:02;8.60;99.90
25983;DHT22;13773;48.868;10.730;2023-04-24T07:04:29;8.70;99.90
25983;DHT22;13773;48.868;10.730;2023-04-24T07:06:55;8.90;99.90
25983;DHT22;13773;48.868;10.730;2023-04-24T07:09:22;9.00;99.90
25983;DHT22;13773;48.868;10.730;2023-04-24T07:11:49;9.20;99.90
25983;DHT22;13773;48.868;10.730;2023-04-24T07:14:15;9.40;99.90
25983;DHT22;13773;48.868;10.730;2023-04-24T07:16:42;9.60;99.90
25983;DHT22;13773;48.868;10.730;2023-04-24T07:19:07;9.60;99.90
25983;DHT22;13773;48.868;10.730;2023-04-24T07:21:33;9.70;99.90
25983;DHT22;13773;48.868;10.730;2023-04-24T07:23:59;9.60;99.90
25983;DHT22;13773;48.868;10.730;2023-04-24T07:26:26;9.60;99.90
25983;DHT22;13773;48.868;10.730;2023-04-24T07:28:52;9.50;99.90
25983;DHT22;13773;48.868;10.730;2023-04-24T07:31:18;9.40;99.90
25983;DHT22;13773;48.868;10.730;2023-04-24T07:33:44;9.40;99.90
25983;DHT22;13773;48.868;10.730;2023-04-24T07:36:10;9.30;99.90
25983;DHT22;13773;48.868;10.730;2023-04-24T07:38:41;9.20;99.90
25983;DHT22;13773;48.868;10.730;2023-04-24T07:41:07;9.20;99.90
25983;DHT22;13773;48.868;10.730;2023-04-24T07:43:33;9.10;99.90
25983;DHT22;13773;48.868;10.730;2023-04-24T07:45:59;9.10;99.90
25983;DHT22;13773;48.868;10.730;2023-04-24T07:48:25;9.20;99.90
25983;DHT22;13773;48.868;10.730;2023-04-24T07:50:52;9.20;99.90
25983;DHT22;13773;48.868;10.730;2023-04-24T07:53:17;9.30;99.90
25983;DHT22;13773;48.868;10.730;2023-04-24T07:55:43;9.30;99.90
25983;DHT22;13773;48.868;10.730;2023-04-24T07:58:09;9.40;99.90
25983;DHT22;13773;48.868;10.730;2023-04-24T08:00:35;9.40;99.90
25983;DHT22;13773;48.868;10.730;2023-04-24T08:03:01;9.40;99.90
25983;DHT22;13773;48.868;10.730;2023-04-24T08:05:27;9.70;99.90
25983;DHT22;13773;48.868;10.730;2023-04-24T08:07:54;9.90;99.90
25983;DHT22;13773;48.868;10.730;2023-04-24T08:10:21;10.10;99.90
25983;DHT22;13773;48.868;10.730;2023-04-24T08:12:47;10.20;99.90
25983;DHT22;13773;48.868;10.730;2023-04-24T08:15:13;10.30;99.90
25983;DHT22;13773;48.868;10.730;2023-04-24T08:17:39;10.30;99.90
25983;DHT22;13773;48.868;10.730;2023-04-24T08:20:06;10.20;99.90
25983;DHT22;13773;48.868;10.730;2023-04-24T08:22:35;10.20;99.90
25983;DHT22;13773;48.868;10.730;2023-04-24T08:25:01;10.30;99.90
25983;DHT22;13773;48.868;10.730;2023-04-24T08:27:27;10.70;99.90
25983;DHT22;13773;48.868;10.730;2023-04-24T08:29:53;11.10;99.90
25983;DHT22;13773;48.868;10.730;2023-04-24T08:32:19;11.00;99.90
25983;DHT22;13773;48.868;10.730;2023-04-24T08:34:45;11.00;99.90
25983;DHT22;13773;48.868;10.730;2023-04-24T08:37:11;11.00;99.90
25983;DHT22;13773;48.868;10.730;2023-04-24T08:39:37;10.50;99.90
25983;DHT22;13773;48.868;10.730;2023-04-24T08:42:04;10.30;99.90
25983;DHT22;13773;48.868;10.730;2023-04-24T08:44:33;10.10;99.90
25983;DHT22;13773;48.868;10.730;2023-04-24T08:47:01;10.20;99.90
25983;DHT22;13773;48.868;10.730;2023-04-24T08:49:28;10.50;99.90
25983;DHT22;13773;48.868;10.730;2023-04-24T08:51:54;10.40;99.90
25983;DHT22;13773;48.868;10.730;2023-04-24T08:54:20;10.20;99.90
25983;DHT22;13773;48.868;10.730;2023-04-24T08:56:47;10.30;99.90
25983;DHT22;13773;48.868;10.730;2023-04-24T08:59:14;10.30;99.90
25983;DHT22;13773;48.868;10.730;2023-04-24T09:01:41;10.50;99.90
25983;DHT22;13773;48.868;10.730;2023-04-24T09:04:08;10.50;99.90
25983;DHT22;13773;48.868;10.730;2023-04-24T09:06:38;10.60;99.90
25983;DHT22;13773;48.868;10.730;2023-04-24T09:09:04;10.90;99.90
25983;DHT22;13773;48.868;10.730;2023-04-24T09:11:31;11.20;99.90
25983;DHT22;13773;48.868;10.730;2023-04-24T09:13:58;11.70;99.90
25983;DHT22;13773;48.868;10.730;2023-04-24T09:16:25;12.00;99.90
25983;DHT22;13773;48.868;10.730;2023-04-24T09:18:52;11.90;99.90
25983;DHT22;13773;48.868;10.730;2023-04-24T09:21:20;11.90;99.90
25983;DHT22;13773;48.868;10.730;2023-04-24T09:23:46;11.80;99.90
25983;DHT22;13773;48.868;10.730;2023-04-24T09:26:12;11.40;99.90
25983;DHT22;13773;48.868;10.730;2023-04-24T09:28:40;11.00;99.90
25983;DHT22;13773;48.868;10.730;2023-04-24T09:31:08;10.80;99.90
25983;DHT22;13773;48.868;10.730;2023-04-24T09:33:35;10.50;99.90
25983;DHT22;13773;48.868;10.730;2023-04-24T09:36:02;10.40;99.90
25983;DHT22;13773;48.868;10.730;2023-04-24T09:38:35;10.10;99.90
25983;DHT22;13773;48.868;10.730;2023-04-24T09:41:03;9.00;99.90
25983;DHT22;13773;48.868;10.730;2023-04-24T09:43:30;9.20;99.90
25983;DHT22;13773;48.868;10.730;2023-04-24T09:45:57;8.50;99.90
25983;DHT22;13773;48.868;10.730;2023-04-24T09:48:32;8.60;99.90
25983;DHT22;13773;48.868;10.730;2023-04-24T09:51:04;8.80;99.90
25983;DHT22;13773;48.868;10.730;2023-04-24T09:53:36;9.00;99.90
25983;DHT22;13773;48.868;10.730;2023-04-24T09:56:12;9.30;99.90
25983;DHT22;13773;48.868;10.730;2023-04-24T09:58:40;9.70;99.90
25983;DHT22;13773;48.868;10.730;2023-04-24T10:01:06;10.10;99.90
25983;DHT22;13773;48.868;10.730;2023-04-24T10:03:33;10.30;99.90
25983;DHT22;13773;48.868;10.730;2023-04-24T10:06:03;10.70;99.90
25983;DHT22;13773;48.868;10.730;2023-04-24T10:08:35;11.00;99.90
25983;DHT22;13773;48.868;10.730;2023-04-24T10:11:02;11.10;99.90
25983;DHT22;13773;48.868;10.730;2023-04-24T10:13:28;11.10;99.90
25983;DHT22;13773;48.868;10.730;2023-04-24T10:15:54;11.50;99.90
25983;DHT22;13773;48.868;10.730;2023-04-24T10:18:21;11.50;99.90
25983;DHT22;13773;48.868;10.730;2023-04-24T10:20:48;11.30;99.90
25983;DHT22;13773;48.868;10.730;2023-04-24T10:23:15;10.90;99.90
25983;DHT22;13773;48.868;10.730;2023-04-24T10:25:42;10.80;99.90
25983;DHT22;13773;48.868;10.730;2023-04-24T10:28:09;10.60;99.90
25983;DHT22;13773;48.868;10.730;2023-04-24T10:30:36;10.50;99.90
25983;DHT22;13773;48.868;10.730;2023-04-24T10:33:04;10.60;99.90
25983;DHT22;13773;48.868;10.730;2023-04-24T10:35:40;10.90;99.90
25983;DHT22;13773;48.868;10.730;2023-04-24T10:38:11;10.90;99.90
25983;DHT22;13773;48.868;10.730;2023-04-24T10:40:37;11.10;99.90
25983;DHT22;13773;48.868;10.730;2023-04-24T10:43:07;11.00;99.90
25983;DHT22;13773;48.868;10.730;2023-04-24T10:45:35;11.30;99.90
25983;DHT22;13773;48.868;10.730;2023-04-24T10:48:05;11.40;99.90
25983;DHT22;13773;48.868;10.730;2023-04-24T10:50:51;11.40;99.90
25983;DHT22;13773;48.868;10.730;2023-04-24T10:53:22;11.60;99.90
25983;DHT22;13773;48.868;10.730;2023-04-24T10:58:25;11.90;99.90
25983;DHT22;13773;48.868;10.730;2023-04-24T11:01:00;12.20;99.90
25983;DHT22;13773;48.868;10.730;2023-04-24T11:03:29;12.10;99.90
25983;DHT22;13773;48.868;10.730;2023-04-24T11:11:12;11.60;99.90
25983;DHT22;13773;48.868;10.730;2023-04-24T11:16:40;11.30;99.90
25983;DHT22;13773;48.868;10.730;2023-04-24T11:21:54;11.50;99.90
25983;DHT22;13773;48.868;10.730;2023-04-24T11:34:46;12.50;99.90
25983;DHT22;13773;48.868;10.730;2023-04-24T11:37:13;12.20;99.90
25983;DHT22;13773;48.868;10.730;2023-04-24T11:39:40;12.40;99.90
25983;DHT22;13773;48.868;10.730;2023-04-24T11:42:07;12.40;99.90
25983;DHT22;13773;48.868;10.730;2023-04-24T11:44:34;12.30;99.90
25983;DHT22;13773;48.868;10.730;2023-04-24T11:47:05;12.20;99.90
25983;DHT22;13773;48.868;10.730;2023-04-24T11:49:32;12.30;99.90
25983;DHT22;13773;48.868;10.730;2023-04-24T11:51:59;12.10;99.90
25983;DHT22;13773;48.868;10.730;2023-04-24T11:54:25;12.00;99.90
25983;DHT22;13773;48.868;10.730;2023-04-24T11:56:51;11.90;99.90
25983;DHT22;13773;48.868;10.730;2023-04-24T11:59:17;12.20;99.90
25983;DHT22;13773;48.868;10.730;2023-04-24T12:01:44;12.10;99.90
25983;DHT22;13773;48.868;10.730;2023-04-24T12:04:11;11.90;99.90
25983;DHT22;13773;48.868;10.730;2023-04-24T12:06:37;11.60;99.90
25983;DHT22;13773;48.868;10.730;2023-04-24T12:09:03;11.50;99.90
25983;DHT22;13773;48.868;10.730;2023-04-24T12:11:28;11.70;99.90
25983;DHT22;13773;48.868;10.730;2023-04-24T12:13:54;11.80;99.90
25983;DHT22;13773;48.868;10.730;2023-04-24T12:16:20;11.80;99.90
25983;DHT22;13773;48.868;10.730;2023-04-24T12:18:46;11.90;99.90
25983;DHT22;13773;48.868;10.730;2023-04-24T12:21:22;12.00;99.90
25983;DHT22;13773;48.868;10.730;2023-04-24T12:23:49;12.10;99.90
25983;DHT22;13773;48.868;10.730;2023-04-24T12:26:17;12.20;99.90
25983;DHT22;13773;48.868;10.730;2023-04-24T12:28:47;12.40;99.90
25983;DHT22;13773;48.868;10.730;2023-04-24T12:31:13;12.60;99.90
25983;DHT22;13773;48.868;10.730;2023-04-24T12:33:39;12.70;99.90
25983;DHT22;13773;48.868;10.730;2023-04-24T12:36:05;12.40;99.90
25983;DHT22;13773;48.868;10.730;2023-04-24T12:38:32;11.90;99.90
25983;DHT22;13773;48.868;10.730;2023-04-24T12:41:10;11.80;99.90
25983;DHT22;13773;48.868;10.730;2023-04-24T12:43:36;11.70;99.90
25983;DHT22;13773;48.868;10.730;2023-04-24T12:46:03;11.50;99.90
25983;DHT22;13773;48.868;10.730;2023-04-24T12:48:29;11.60;99.90
25983;DHT22;13773;48.868;10.730;2023-04-24T12:50:57;11.90;99.90
25983;DHT22;13773;48.868;10.730;2023-04-24T12:53:26;12.00;99.90
25983;DHT22;13773;48.868;10.730;2023-04-24T12:55:52;11.90;99.90
25983;DHT22;13773;48.868;10.730;2023-04-24T12:58:19;11.60;99.90
25983;DHT22;13773;48.868;10.730;2023-04-24T13:00:46;11.70;99.90
25983;DHT22;13773;48.868;10.730;2023-04-24T13:03:12;11.90;99.90
25983;DHT22;13773;48.868;10.730;2023-04-24T13:05:38;12.00;99.90
25983;DHT22;13773;48.868;10.730;2023-04-24T13:08:04;12.60;99.90
25983;DHT22;13773;48.868;10.730;2023-04-24T13:10:30;12.50;99.90
25983;DHT22;13773;48.868;10.730;2023-04-24T13:12:55;12.50;99.90
25983;DHT22;13773;48.868;10.730;2023-04-24T13:15:21;12.50;99.90
25983;DHT22;13773;48.868;10.730;2023-04-24T13:17:47;12.30;99.90
25983;DHT22;13773;48.868;10.730;2023-04-24T13:20:13;12.30;99.90
25983;DHT22;13773;48.868;10.730;2023-04-24T13:22:39;12.00;99.90
25983;DHT22;13773;48.868;10.730;2023-04-24T13:25:05;12.20;99.90
25983;DHT22;13773;48.868;10.730;2023-04-24T13:27:34;12.20;99.90
25983;DHT22;13773;48.868;10.730;2023-04-24T13:30:00;12.20;99.90
25983;DHT22;13773;48.868;10.730;2023-04-24T13:32:26;12.00;99.90
25983;DHT22;13773;48.868;10.730;2023-04-24T13:34:53;11.60;99.90
25983;DHT22;13773;48.868;10.730;2023-04-24T13:37:18;11.30;99.90
25983;DHT22;13773;48.868;10.730;2023-04-24T13:39:44;11.10;99.90
25983;DHT22;13773;48.868;10.730;2023-04-24T13:42:10;11.10;99.90
25983;DHT22;13773;48.868;10.730;2023-04-24T13:44:36;11.30;99.90
25983;DHT22;13773;48.868;10.730;2023-04-24T13:47:01;11.50;99.90
25983;DHT22;13773;48.868;10.730;2023-04-24T13:49:28;11.70;99.90
25983;DHT22;13773;48.868;10.730;2023-04-24T13:51:55;11.90;99.90
25983;DHT22;13773;48.868;10.730;2023-04-24T13:54:21;11.80;99.90
25983;DHT22;13773;48.868;10.730;2023-04-24T13:56:49;12.00;99.90
25983;DHT22;13773;48.868;10.730;2023-04-24T13:59:14;12.00;99.90
25983;DHT22;13773;48.868;10.730;2023-04-24T14:01:40;11.90;99.90
25983;DHT22;13773;48.868;10.730;2023-04-24T14:04:06;11.90;99.90
25983;DHT22;13773;48.868;10.730;2023-04-24T14:06:32;11.50;99.90
25983;DHT22;13773;48.868;10.730;2023-04-24T14:08:58;11.30;99.90
25983;DHT22;13773;48.868;10.730;2023-04-24T14:11:23;11.10;99.90
25983;DHT22;13773;48.868;10.730;2023-04-24T14:13:49;11.20;99.90
25983;DHT22;13773;48.868;10.730;2023-04-24T14:16:15;11.00;99.90
25983;DHT22;13773;48.868;10.730;2023-04-24T14:18:41;10.70;99.90
25983;DHT22;13773;48.868;10.730;2023-04-24T14:21:06;10.70;99.90
25983;DHT22;13773;48.868;10.730;2023-04-24T14:23:32;10.80;99.90
25983;DHT22;13773;48.868;10.730;2023-04-24T14:25:59;11.00;99.90
25983;DHT22;13773;48.868;10.730;2023-04-24T14:28:24;11.30;99.90
25983;DHT22;13773;48.868;10.730;2023-04-24T14:30:51;11.80;99.90
25983;DHT22;13773;48.868;10.730;2023-04-24T14:33:17;12.00;99.90
25983;DHT22;13773;48.868;10.730;2023-04-24T14:35:43;11.90;99.90
25983;DHT22;13773;48.868;10.730;2023-04-24T14:38:09;11.60;99.90
25983;DHT22;13773;48.868;10.730;2023-04-24T14:40:35;11.80;99.90
25983;DHT22;13773;48.868;10.730;2023-04-24T14:43:01;12.10;99.90
25983;DHT22;13773;48.868;10.730;2023-04-24T14:45:28;11.90;99.90
25983;DHT22;13773;48.868;10.730;2023-04-24T14:47:54;11.90;99.90
25983;DHT22;13773;48.868;10.730;2023-04-24T14:50:20;11.80;99.90
25983;DHT22;13773;48.868;10.730;2023-04-24T14:52:46;11.70;99.90
25983;DHT22;13773;48.868;10.730;2023-04-24T14:55:12;11.50;99.90
25983;DHT22;13773;48.868;10.730;2023-04-24T14:57:38;11.40;99.90
25983;DHT22;13773;48.868;10.730;2023-04-24T15:00:07;11.20;99.90
25983;DHT22;13773;48.868;10.730;2023-04-24T15:02:36;11.10;99.90
25983;DHT22;13773;48.868;10.730;2023-04-24T15:05:05;10.80;99.90
25983;DHT22;13773;48.868;10.730;2023-04-24T15:07:31;10.60;99.90
25983;DHT22;13773;48.868;10.730;2023-04-24T15:09:58;10.70;99.90
25983;DHT22;13773;48.868;10.730;2023-04-24T15:12:24;10.70;99.90
25983;DHT22;13773;48.868;10.730;2023-04-24T15:14:50;11.00;99.90
25983;DHT22;13773;48.868;10.730;2023-04-24T15:17:15;11.10;99.90
25983;DHT22;13773;48.868;10.730;2023-04-24T15:19:41;11.20;99.90
25983;DHT22;13773;48.868;10.730;2023-04-24T15:22:07;11.00;99.90
25983;DHT22;13773;48.868;10.730;2023-04-24T15:24:33;10.80;99.90
25983;DHT22;13773;48.868;10.730;2023-04-24T15:26:59;10.50;99.90
25983;DHT22;13773;48.868;10.730;2023-04-24T15:29:25;9.90;99.90
25983;DHT22;13773;48.868;10.730;2023-04-24T15:31:51;9.50;99.90
25983;DHT22;13773;48.868;10.730;2023-04-24T15:34:17;9.20;99.90
25983;DHT22;13773;48.868;10.730;2023-04-24T15:36:42;8.90;99.90
25983;DHT22;13773;48.868;10.730;2023-04-24T15:39:08;9.10;99.90
25983;DHT22;13773;48.868;10.730;2023-04-24T15:41:35;9.30;99.90
25983;DHT22;13773;48.868;10.730;2023-04-24T15:44:00;9.50;99.90